Time,TemperatureF,DewpointF,PressureIn,WindDirection,WindDirectionDegrees,WindSpeedMPH,WindSpeedGustMPH,Humidity,HourlyPrecipIn,Conditions,Clouds,dailyrainin,SoftwareType,DateUTC
2013-07-12 00:10:00,72.6,71.0,29.87,SE,130,0.0,0.0,93,0.00,,,0.00,weatherlink.com 1.10,2013-07-12 04:10:00,
2013-07-12 00:25:00,72.5,70.0,29.86,East,98,0.0,0.0,92,0.00,,,0.00,weatherlink.com 1.10,2013-07-12 04:25:00,
2013-07-12 00:40:00,72.4,70.0,29.86,East,101,0.0,0.0,93,0.00,,,0.00,weatherlink.com 1.10,2013-07-12 04:40:00,
2013-07-12 00:55:00,72.1,70.0,29.85,East,101,0.0,0.0,93,0.00,,,0.00,weatherlink.com 1.10,2013-07-12 04:55:00,
2013-07-12 01:10:00,72.0,70.0,29.85,SE,136,0.0,0.0,93,0.00,,,0.00,weatherlink.com 1.10,2013-07-12 05:10:00,
2013-07-12 01:25:00,71.9,70.0,29.85,SSE,155,0.0,0.0,93,0.00,,,0.00,weatherlink.com 1.10,2013-07-12 05:25:00,
2013-07-12 01:40:00,71.8,70.0,29.85,SSE,155,0.0,0.0,93,0.00,,,0.00,weatherlink.com 1.10,2013-07-12 05:40:00,
2013-07-12 01:56:00,71.6,70.0,29.85,SSE,155,0.0,0.0,93,0.00,,,0.00,weatherlink.com 1.10,2013-07-12 05:56:00,
2013-07-12 02:11:00,71.5,69.0,29.85,SSE,155,0.0,0.0,93,0.00,,,0.00,weatherlink.com 1.10,2013-07-12 06:11:00,
2013-07-12 02:26:00,71.5,70.0,29.85,SSE,155,0.0,0.0,94,0.00,,,0.00,weatherlink.com 1.10,2013-07-12 06:26:00,
2013-07-12 02:41:00,71.4,69.0,29.86,SSW,213,0.0,0.0,93,0.00,,,0.00,weatherlink.com 1.10,2013-07-12 06:41:00,
2013-07-12 02:56:00,71.4,69.0,29.85,SSW,213,0.0,0.0,93,0.00,,,0.00,weatherlink.com 1.10,2013-07-12 06:56:00,
2013-07-12 03:11:00,71.5,69.0,29.85,SSW,204,0.0,0.0,93,0.00,,,0.00,weatherlink.com 1.10,2013-07-12 07:11:00,
2013-07-12 03:26:00,71.5,69.0,29.85,SSE,161,0.0,0.0,93,0.00,,,0.00,weatherlink.com 1.10,2013-07-12 07:26:00,
2013-07-12 03:41:00,71.2,69.0,29.85,SE,140,0.0,0.0,93,0.00,,,0.00,weatherlink.com 1.10,2013-07-12 07:41:00,
2013-07-12 03:56:00,71.0,69.0,29.86,WSW,247,0.0,0.0,93,0.00,,,0.00,weatherlink.com 1.10,2013-07-12 07:56:00,
2013-07-12 04:11:00,70.7,69.0,29.85,SSE,150,0.0,0.0,93,0.00,,,0.00,weatherlink.com 1.10,2013-07-12 08:11:00,
2013-07-12 04:26:00,70.4,68.0,29.85,SSW,200,0.0,0.0,93,0.00,,,0.00,weatherlink.com 1.10,2013-07-12 08:26:00,
2013-07-12 04:41:00,70.3,69.0,29.85,SSW,208,0.0,0.0,94,0.00,,,0.00,weatherlink.com 1.10,2013-07-12 08:41:00,
2013-07-12 04:56:00,70.2,69.0,29.85,SSW,202,0.0,0.0,94,0.00,,,0.00,weatherlink.com 1.10,2013-07-12 08:56:00,
2013-07-12 05:11:00,70.1,68.0,29.85,WSW,238,0.0,0.0,94,0.00,,,0.00,weatherlink.com 1.10,2013-07-12 09:11:00,
2013-07-12 05:26:00,70.0,68.0,29.84,SW,227,0.0,0.0,93,0.00,,,0.00,weatherlink.com 1.10,2013-07-12 09:26:00,
2013-07-12 05:41:00,69.7,68.0,29.84,SW,233,0.0,0.0,93,0.00,,,0.00,weatherlink.com 1.10,2013-07-12 09:41:00,
2013-07-12 05:56:00,69.6,68.0,29.85,SW,233,0.0,0.0,93,0.00,,,0.00,weatherlink.com 1.10,2013-07-12 09:56:00,
2013-07-12 06:11:00,69.3,68.0,29.85,SSE,166,0.0,0.0,94,0.00,,,0.00,weatherlink.com 1.10,2013-07-12 10:11:00,
2013-07-12 06:26:00,69.1,67.0,29.85,SSE,166,0.0,0.0,94,0.00,,,0.00,weatherlink.com 1.10,2013-07-12 10:26:00,
2013-07-12 06:41:00,69.0,67.0,29.86,SSE,166,0.0,0.0,94,0.00,,,0.00,weatherlink.com 1.10,2013-07-12 10:41:00,
2013-07-12 06:56:00,69.2,68.0,29.86,SSE,165,0.0,0.0,95,0.00,,,0.00,weatherlink.com 1.10,2013-07-12 10:56:00,
2013-07-12 07:11:00,69.1,67.0,29.86,SSE,165,0.0,0.0,94,0.00,,,0.00,weatherlink.com 1.10,2013-07-12 11:11:00,
2013-07-12 07:26:00,69.2,68.0,29.86,SSE,165,0.0,0.0,94,0.00,,,0.00,weatherlink.com 1.10,2013-07-12 11:26:00,
2013-07-12 07:41:00,69.5,68.0,29.87,SSE,165,0.0,0.0,95,0.00,,,0.00,weatherlink.com 1.10,2013-07-12 11:41:00,
2013-07-12 07:56:00,69.9,69.0,29.87,SSE,165,0.0,0.0,95,0.00,,,0.00,weatherlink.com 1.10,2013-07-12 11:56:00,
2013-07-12 08:11:00,70.4,69.0,29.88,NW,319,0.0,0.0,94,0.00,,,0.00,weatherlink.com 1.10,2013-07-12 12:11:00,
2013-07-12 08:26:00,70.8,69.0,29.89,SSW,209,0.0,0.0,94,0.00,,,0.00,weatherlink.com 1.10,2013-07-12 12:26:00,
2013-07-12 08:41:00,71.5,69.0,29.88,South,181,0.0,0.0,93,0.00,,,0.00,weatherlink.com 1.10,2013-07-12 12:41:00,
2013-07-12 08:56:00,72.3,70.0,29.88,ESE,121,0.0,0.0,92,0.00,,,0.00,weatherlink.com 1.10,2013-07-12 12:56:00,
2013-07-12 09:11:00,72.8,70.0,29.88,ESE,113,0.0,0.0,92,0.00,,,0.00,weatherlink.com 1.10,2013-07-12 13:11:00,
2013-07-12 09:26:00,73.2,71.0,29.88,ESE,119,0.0,0.0,91,0.00,,,0.00,weatherlink.com 1.10,2013-07-12 13:26:00,
2013-07-12 09:41:00,73.8,71.0,29.88,SSW,199,0.0,0.0,90,0.00,,,0.00,weatherlink.com 1.10,2013-07-12 13:41:00,
2013-07-12 09:56:00,74.5,71.0,29.88,NW,315,0.0,0.0,88,0.00,,,0.00,weatherlink.com 1.10,2013-07-12 13:56:00,
2013-07-12 10:11:00,74.8,71.0,29.88,ENE,61,0.0,0.0,89,0.00,,,0.00,weatherlink.com 1.10,2013-07-12 14:11:00,
2013-07-12 10:26:00,76.7,72.0,29.88,WNW,291,0.0,0.0,85,0.00,,,0.00,weatherlink.com 1.10,2013-07-12 14:26:00,
2013-07-12 10:41:00,77.5,72.0,29.88,NW,323,0.0,0.0,84,0.00,,,0.00,weatherlink.com 1.10,2013-07-12 14:41:00,
2013-07-12 10:56:00,78.3,72.0,29.88,SE,136,0.0,0.0,82,0.00,,,0.00,weatherlink.com 1.10,2013-07-12 14:56:00,
2013-07-12 11:11:00,78.0,72.0,29.88,East,98,0.0,0.0,82,0.00,,,0.00,weatherlink.com 1.10,2013-07-12 15:11:00,
2013-07-12 11:26:00,79.1,73.0,29.88,East,83,0.0,0.0,81,0.00,,,0.00,weatherlink.com 1.10,2013-07-12 15:26:00,
2013-07-12 11:41:00,78.5,72.0,29.88,SE,145,0.0,0.0,79,0.00,,,0.00,weatherlink.com 1.10,2013-07-12 15:41:00,
2013-07-12 11:56:00,79.4,73.0,29.88,East,100,0.0,0.0,80,0.00,,,0.00,weatherlink.com 1.10,2013-07-12 15:56:00,
2013-07-12 12:11:00,79.8,72.0,29.89,ESE,103,0.0,0.0,77,0.00,,,0.00,weatherlink.com 1.10,2013-07-12 16:11:00,
2013-07-12 12:26:00,80.0,71.0,29.88,ESE,113,0.0,0.0,75,0.00,,,0.00,weatherlink.com 1.10,2013-07-12 16:26:00,
2013-07-12 12:41:00,80.3,71.0,29.88,ESE,118,0.0,0.0,74,0.00,,,0.00,weatherlink.com 1.10,2013-07-12 16:41:00,
2013-07-12 12:56:00,80.4,72.0,29.87,East,90,0.0,0.0,75,0.00,,,0.00,weatherlink.com 1.10,2013-07-12 16:56:00,
2013-07-12 13:11:00,80.4,73.0,29.88,ESE,104,0.0,0.0,77,0.00,,,0.00,weatherlink.com 1.10,2013-07-12 17:11:00,
2013-07-12 13:26:00,80.3,72.0,29.87,SE,140,0.0,0.0,75,0.00,,,0.00,weatherlink.com 1.10,2013-07-12 17:26:00,
2013-07-12 13:41:00,80.2,71.0,29.87,SE,132,0.0,0.0,73,0.00,,,0.00,weatherlink.com 1.10,2013-07-12 17:41:00,
2013-07-12 13:56:00,79.8,71.0,29.87,SE,132,0.0,0.0,75,0.00,,,0.00,weatherlink.com 1.10,2013-07-12 17:56:00,
2013-07-12 14:26:00,80.8,71.0,29.87,East,91,0.0,0.0,73,0.00,,,0.00,weatherlink.com 1.10,2013-07-12 18:26:00,
2013-07-12 14:41:00,80.8,71.0,29.86,SE,131,0.0,0.0,73,0.00,,,0.00,weatherlink.com 1.10,2013-07-12 18:41:00,
2013-07-12 14:56:00,80.7,71.0,29.87,East,98,0.0,0.0,73,0.00,,,0.00,weatherlink.com 1.10,2013-07-12 18:56:00,
2013-07-12 15:11:00,81.0,71.0,29.86,SE,128,0.0,0.0,72,0.00,,,0.00,weatherlink.com 1.10,2013-07-12 19:11:00,
2013-07-12 15:26:00,80.1,72.0,29.86,ENE,65,0.0,0.0,76,0.00,,,0.00,weatherlink.com 1.10,2013-07-12 19:26:00,
2013-07-12 15:41:00,80.9,73.0,29.86,SE,125,0.0,0.0,76,0.00,,,0.00,weatherlink.com 1.10,2013-07-12 19:41:00,
2013-07-12 15:56:00,81.4,72.0,29.85,SE,124,0.0,0.0,74,0.00,,,0.00,weatherlink.com 1.10,2013-07-12 19:56:00,
2013-07-12 16:11:00,81.2,71.0,29.86,SE,129,0.0,0.0,71,0.00,,,0.00,weatherlink.com 1.10,2013-07-12 20:11:00,
2013-07-12 16:26:00,78.8,70.0,29.86,East,98,0.0,0.0,75,0.00,,,0.00,weatherlink.com 1.10,2013-07-12 20:26:00,
2013-07-12 16:57:00,70.7,66.0,29.88,North,355,0.0,0.0,84,0.00,,,0.00,weatherlink.com 1.10,2013-07-12 20:57:00,
2013-07-12 17:27:00,68.9,66.0,29.89,WSW,244,0.0,0.0,89,0.00,,,0.00,weatherlink.com 1.10,2013-07-12 21:27:00,
2013-07-12 17:42:00,66.8,64.0,29.89,WSW,257,0.0,0.0,90,0.00,,,0.00,weatherlink.com 1.10,2013-07-12 21:42:00,
2013-07-12 17:57:00,66.1,64.0,29.89,SW,230,0.0,0.0,91,0.00,,,0.00,weatherlink.com 1.10,2013-07-12 21:57:00,
2013-07-12 18:12:00,66.3,64.0,29.90,SSW,198,0.0,0.0,93,0.00,,,0.00,weatherlink.com 1.10,2013-07-12 22:12:00,
2013-07-12 18:27:00,66.6,65.0,29.91,WNW,302,0.0,0.0,93,0.00,,,0.00,weatherlink.com 1.10,2013-07-12 22:27:00,
2013-07-12 18:42:00,66.3,64.0,29.91,NW,323,0.0,0.0,92,0.00,,,0.00,weatherlink.com 1.10,2013-07-12 22:42:00,
2013-07-12 19:12:00,66.0,63.0,29.91,NW,317,0.0,0.0,91,0.00,,,0.00,weatherlink.com 1.10,2013-07-12 23:12:00,
2013-07-12 19:27:00,66.0,64.0,29.91,NE,55,0.0,0.0,92,0.00,,,0.00,weatherlink.com 1.10,2013-07-12 23:27:00,
2013-07-12 19:42:00,65.9,64.0,29.91,WNW,290,0.0,0.0,93,0.00,,,0.00,weatherlink.com 1.10,2013-07-12 23:42:00,
2013-07-12 19:57:00,66.0,64.0,29.91,WNW,301,0.0,0.0,92,0.00,,,0.00,weatherlink.com 1.10,2013-07-12 23:57:00,
2013-07-12 20:12:00,66.2,64.0,29.91,NE,48,0.0,0.0,92,0.00,,,0.00,weatherlink.com 1.10,2013-07-13 00:12:00,
2013-07-12 20:27:00,66.4,64.0,29.91,NW,305,0.0,0.0,92,0.00,,,0.00,weatherlink.com 1.10,2013-07-13 00:27:00,
2013-07-12 20:42:00,66.3,64.0,29.91,NW,305,0.0,0.0,92,0.00,,,0.00,weatherlink.com 1.10,2013-07-13 00:42:00,
2013-07-12 20:57:00,66.1,64.0,29.91,ENE,70,0.0,0.0,92,0.00,,,0.00,weatherlink.com 1.10,2013-07-13 00:57:00,
2013-07-12 21:42:00,65.7,64.0,29.92,ENE,62,0.0,0.0,93,0.00,,,0.00,weatherlink.com 1.10,2013-07-13 01:42:00,
2013-07-12 21:57:00,65.7,64.0,29.94,ENE,62,0.0,0.0,94,0.00,,,0.00,weatherlink.com 1.10,2013-07-13 01:57:00,
2013-07-12 22:12:00,66.0,64.0,29.94,ENE,62,0.0,0.0,94,0.00,,,0.00,weatherlink.com 1.10,2013-07-13 02:12:00,
2013-07-12 22:27:00,65.9,64.0,29.96,ENE,62,0.0,0.0,94,0.00,,,0.00,weatherlink.com 1.10,2013-07-13 02:27:00,
2013-07-12 22:57:00,66.5,65.0,29.97,ENE,57,0.0,0.0,94,0.00,,,0.00,weatherlink.com 1.10,2013-07-13 02:57:00,
2013-07-12 23:12:00,66.7,65.0,29.97,ENE,57,0.0,0.0,95,0.00,,,0.00,weatherlink.com 1.10,2013-07-13 03:12:00,
2013-07-12 23:27:00,67.2,66.0,29.97,ENE,57,0.0,0.0,95,0.00,,,0.00,weatherlink.com 1.10,2013-07-13 03:27:00,
2013-07-12 23:42:00,67.3,66.0,29.98,WNW,296,0.0,0.0,94,0.00,,,0.00,weatherlink.com 1.10,2013-07-13 03:42:00,
2013-07-12 23:57:00,66.6,64.0,29.98,ENE,70,0.0,0.0,92,0.00,,,0.00,weatherlink.com 1.10,2013-07-13 03:57:00,